createdAt,value
2019-03-18T00:00:02.021Z,101062.05
2019-03-18T00:02:32.139Z,101065.55
2019-03-18T00:05:00.345Z,101066.40
2019-03-18T00:07:28.382Z,101063.78
2019-03-18T00:09:56.247Z,101064.30
2019-03-18T00:12:24.324Z,101070.84
2019-03-18T00:15:01.262Z,101075.67
2019-03-18T00:17:21.899Z,101073.89
2019-03-18T00:19:49.864Z,101072.95
2019-03-18T00:22:17.670Z,101077.34
2019-03-18T00:24:45.499Z,101074.55
2019-03-18T00:27:13.261Z,101075.62
2019-03-18T00:29:41.027Z,101076.36
2019-03-18T00:32:08.888Z,101075.84
2019-03-18T00:34:36.657Z,101076.72
2019-03-18T00:37:04.518Z,101073.30
2019-03-18T00:39:32.384Z,101079.00
2019-03-18T00:42:00.258Z,101078.26
2019-03-18T00:44:28.013Z,101082.45
2019-03-18T00:46:55.780Z,101082.17
2019-03-18T00:49:23.537Z,101081.66
2019-03-18T00:51:51.508Z,101090.78
2019-03-18T00:54:19.888Z,101086.52
2019-03-18T00:56:47.958Z,101090.53
2019-03-18T00:59:15.723Z,101092.28
2019-03-18T01:01:44.203Z,101094.89
2019-03-18T01:04:11.866Z,101095.48
2019-03-18T01:06:39.730Z,101097.44
2019-03-18T01:09:07.596Z,101104.84
2019-03-18T01:11:35.362Z,101103.48
2019-03-18T01:14:03.119Z,101104.77
2019-03-18T01:16:30.886Z,101100.77
2019-03-18T01:18:58.650Z,101102.13
2019-03-18T01:21:26.413Z,101100.77
2019-03-18T01:23:54.176Z,101097.59
2019-03-18T01:26:21.947Z,101095.92
2019-03-18T01:28:49.881Z,101102.47
2019-03-18T01:31:17.672Z,101097.91
2019-03-18T01:33:45.435Z,101100.79
2019-03-18T01:36:13.302Z,101097.27
2019-03-18T01:38:41.177Z,101102.41
2019-03-18T01:41:08.933Z,101104.77
2019-03-18T01:43:36.802Z,101098.89
2019-03-18T01:46:04.568Z,101089.41
2019-03-18T01:48:32.530Z,101095.27
2019-03-18T01:51:00.398Z,101096.95
2019-03-18T01:53:28.673Z,101103.90
2019-03-18T01:55:56.450Z,101096.69
2019-03-18T01:58:24.197Z,101095.23
2019-03-18T02:00:52.580Z,101093.89
2019-03-18T02:03:20.240Z,101100.48
2019-03-18T02:05:48.205Z,101097.68
2019-03-18T02:08:16.076Z,101107.27
2019-03-18T02:10:43.843Z,101107.84
2019-03-18T02:13:11.803Z,101116.66
2019-03-18T02:15:39.574Z,101114.61
2019-03-18T02:18:07.329Z,101117.19
2019-03-18T02:20:35.303Z,101122.71
2019-03-18T02:23:03.068Z,101124.83
2019-03-18T02:25:30.843Z,101125.66
2019-03-18T02:27:58.598Z,101136.59
2019-03-18T02:30:26.359Z,101136.62
2019-03-18T02:32:54.120Z,101144.02
2019-03-18T02:35:22.097Z,101142.37
2019-03-18T02:37:49.969Z,101143.25
2019-03-18T02:40:17.724Z,101147.11
2019-03-18T02:42:45.482Z,101155.22
2019-03-18T02:45:13.250Z,101152.27
2019-03-18T02:47:41.027Z,101158.19
2019-03-18T02:50:08.672Z,101160.47
2019-03-18T02:52:37.156Z,101165.26
2019-03-18T02:55:06.144Z,101161.73
2019-03-18T02:57:33.813Z,101165.20
2019-03-18T03:00:01.689Z,101155.82
2019-03-18T03:02:30.780Z,101165.98
2019-03-18T03:04:58.738Z,101164.20
2019-03-18T03:07:26.508Z,101173.60
2019-03-18T03:09:54.271Z,101169.66
2019-03-18T03:12:22.028Z,101168.45
2019-03-18T03:14:49.790Z,101174.35
2019-03-18T03:17:21.419Z,101173.05
2019-03-18T03:19:47.260Z,101168.05
2019-03-18T03:22:15.027Z,101171.16
2019-03-18T03:24:42.804Z,101170.40
2019-03-18T03:27:10.557Z,101174.19
2019-03-18T03:29:38.228Z,101175.12
2019-03-18T03:32:05.986Z,101172.66
2019-03-18T03:34:33.770Z,101178.89
2019-03-18T03:37:01.714Z,101188.48
2019-03-18T03:39:29.680Z,101190.31
2019-03-18T03:41:57.455Z,101195.23
2019-03-18T03:44:25.107Z,101196.07
2019-03-18T03:46:52.866Z,101193.12
2019-03-18T03:49:20.636Z,101203.14
2019-03-18T03:51:48.504Z,101203.78
2019-03-18T03:54:17.191Z,101216.71
2019-03-18T03:56:44.738Z,101207.78
2019-03-18T03:59:12.513Z,101209.78
2019-03-18T04:01:41.603Z,101210.55
2019-03-18T04:04:09.371Z,101211.38
2019-03-18T04:06:37.336Z,101212.79
2019-03-18T04:09:05.308Z,101215.73
2019-03-18T04:11:33.281Z,101216.64
2019-03-18T04:14:01.645Z,101212.92
2019-03-18T04:16:29.616Z,101210.95
2019-03-18T04:18:57.389Z,101213.33
2019-03-18T04:21:25.363Z,101218.69
2019-03-18T04:23:53.216Z,101229.25
2019-03-18T04:26:21.289Z,101222.55
2019-03-18T04:28:49.157Z,101226.41
2019-03-18T04:31:17.225Z,101226.73
2019-03-18T04:33:45.195Z,101226.87
2019-03-18T04:36:13.265Z,101231.94
2019-03-18T04:38:42.258Z,101232.90
2019-03-18T04:41:10.224Z,101231.71
2019-03-18T04:43:38.192Z,101239.06
2019-03-18T04:46:06.669Z,101247.89
2019-03-18T04:48:34.848Z,101255.27
2019-03-18T04:51:02.823Z,101260.73
2019-03-18T04:53:31.095Z,101257.13
2019-03-18T04:55:59.057Z,101260.34
2019-03-18T04:58:28.164Z,101264.89
2019-03-18T05:00:56.430Z,101269.64
2019-03-18T05:03:24.714Z,101269.38
2019-03-18T05:05:52.674Z,101277.95
2019-03-18T05:08:20.643Z,101279.11
2019-03-18T05:10:48.613Z,101275.72
2019-03-18T05:13:16.679Z,101275.59
2019-03-18T05:15:44.752Z,101272.84
2019-03-18T05:18:13.456Z,101278.09
2019-03-18T05:20:41.510Z,101278.56
2019-03-18T05:23:09.479Z,101285.76
2019-03-18T05:25:37.562Z,101287.02
2019-03-18T05:28:05.725Z,101287.87
2019-03-18T05:30:33.797Z,101295.45
2019-03-18T05:33:01.861Z,101298.58
2019-03-18T05:35:29.933Z,101304.83
2019-03-18T05:37:57.902Z,101298.75
2019-03-18T05:40:25.975Z,101305.70
2019-03-18T05:42:53.937Z,101309.59
2019-03-18T05:45:21.916Z,101303.17
2019-03-18T05:47:49.980Z,101309.24
2019-03-18T05:50:17.952Z,101307.86
2019-03-18T05:52:46.029Z,101317.09
2019-03-18T05:55:14.397Z,101311.89
2019-03-18T05:57:42.117Z,101319.48
2019-03-18T06:00:11.357Z,101326.12
2019-03-18T06:02:39.535Z,101328.74
2019-03-18T06:05:07.303Z,101330.09
2019-03-18T06:07:36.303Z,101331.02
2019-03-18T06:10:07.232Z,101334.87
2019-03-18T06:12:35.300Z,101338.44
2019-03-18T06:15:06.463Z,101335.06
2019-03-18T06:17:34.010Z,101341.30
2019-03-18T06:20:03.314Z,101348.89
2019-03-18T06:22:30.755Z,101348.03
2019-03-18T06:24:58.725Z,101341.44
2019-03-18T06:27:26.589Z,101352.92
2019-03-18T06:29:54.557Z,101355.98
2019-03-18T06:32:22.531Z,101363.48
2019-03-18T06:34:50.392Z,101362.61
2019-03-18T06:37:18.572Z,101372.73
2019-03-18T06:39:46.638Z,101365.73
2019-03-18T06:42:14.613Z,101370.09
2019-03-18T06:44:42.576Z,101367.97
2019-03-18T06:47:10.598Z,101374.17
2019-03-18T06:49:38.612Z,101373.27
2019-03-18T06:52:06.687Z,101370.20
2019-03-18T06:54:34.962Z,101369.72
2019-03-18T06:57:03.853Z,101375.87
2019-03-18T06:59:32.131Z,101374.57
2019-03-18T07:02:00.198Z,101377.22
2019-03-18T07:04:27.758Z,101376.73
2019-03-18T07:06:55.736Z,101374.98
2019-03-18T07:09:23.692Z,101372.81
2019-03-18T07:11:51.660Z,101375.45
2019-03-18T07:14:19.631Z,101371.08
2019-03-18T07:16:47.599Z,101375.92
2019-03-18T07:19:15.568Z,101371.91
2019-03-18T07:21:43.558Z,101373.64
2019-03-18T07:24:11.506Z,101380.17
2019-03-18T07:26:39.577Z,101381.93
2019-03-18T07:29:07.339Z,101385.77
2019-03-18T07:31:35.411Z,101385.77
2019-03-18T07:34:03.390Z,101383.06
2019-03-18T07:36:31.348Z,101395.33
2019-03-18T07:38:59.313Z,101399.77
2019-03-18T07:41:27.210Z,101399.77
2019-03-18T07:43:55.252Z,101401.95
2019-03-18T07:46:23.223Z,101400.11
2019-03-18T07:48:51.188Z,101406.87
2019-03-18T07:51:19.059Z,101400.36
2019-03-18T07:53:47.850Z,101396.80
2019-03-18T07:56:15.404Z,101400.45
2019-03-18T07:58:43.478Z,101401.22
2019-03-18T08:01:11.867Z,101400.77
2019-03-18T08:03:41.566Z,101407.83
2019-03-18T08:06:09.528Z,101398.30
2019-03-18T08:08:37.612Z,101399.44
2019-03-18T08:11:05.568Z,101403.35
2019-03-18T08:13:33.534Z,101407.46
2019-03-18T08:16:01.403Z,101409.94
2019-03-18T08:18:29.779Z,101408.69
2019-03-18T08:20:57.753Z,101414.33
2019-03-18T08:23:25.820Z,101417.03
2019-03-18T08:25:53.901Z,101410.01
2019-03-18T08:28:22.000Z,101410.41
2019-03-18T08:30:49.931Z,101401.03
2019-03-18T08:33:17.903Z,101416.81
2019-03-18T08:35:46.808Z,101412.46
2019-03-18T08:38:14.968Z,101405.31
2019-03-18T08:40:42.729Z,101414.17
2019-03-18T08:43:10.692Z,101411.39
2019-03-18T08:45:38.669Z,101412.89
2019-03-18T08:48:06.637Z,101416.14
2019-03-18T08:50:34.811Z,101414.89
2019-03-18T08:53:03.189Z,101426.08
2019-03-18T08:55:31.052Z,101426.34
2019-03-18T08:57:59.228Z,101418.25
2019-03-18T09:00:27.299Z,101419.56
2019-03-18T09:02:56.455Z,101419.56
2019-03-18T09:05:24.255Z,101424.00
2019-03-18T09:07:52.244Z,101422.03
2019-03-18T09:10:20.196Z,101444.17
2019-03-18T09:12:48.160Z,101436.91
2019-03-18T09:15:16.030Z,101437.09
2019-03-18T09:17:45.019Z,101431.61
2019-03-18T09:20:14.323Z,101434.23
2019-03-18T09:22:42.187Z,101432.33
2019-03-18T09:25:10.672Z,101430.61
2019-03-18T09:27:39.248Z,101431.40
2019-03-18T09:30:16.227Z,101426.00
2019-03-18T09:32:43.786Z,101438.02
2019-03-18T09:35:11.865Z,101435.01
2019-03-18T09:37:40.032Z,101437.55
2019-03-18T09:40:11.072Z,101436.61
2019-03-18T09:42:38.947Z,101433.26
2019-03-18T09:45:09.872Z,101429.98
2019-03-18T09:47:37.640Z,101432.72
2019-03-18T09:50:07.148Z,101425.22
2019-03-18T09:52:34.808Z,101432.90
2019-03-18T09:55:05.182Z,101439.89
2019-03-18T09:57:33.102Z,101434.87
2019-03-18T10:00:00.974Z,101431.10
2019-03-18T10:02:29.138Z,101440.67
2019-03-18T10:04:57.003Z,101443.77
2019-03-18T10:07:25.072Z,101438.75
2019-03-18T10:09:53.059Z,101426.41
2019-03-18T10:12:21.111Z,101428.23
2019-03-18T10:14:49.084Z,101419.23
2019-03-18T10:17:17.050Z,101424.94
2019-03-18T10:19:45.021Z,101428.10
2019-03-18T10:22:12.984Z,101424.07
2019-03-18T10:24:40.955Z,101419.22
2019-03-18T10:27:09.006Z,101417.30
2019-03-18T10:29:36.998Z,101418.75
2019-03-18T10:32:05.082Z,101421.19
2019-03-18T10:34:33.036Z,101411.69
2019-03-18T10:37:01.111Z,101418.76
2019-03-18T10:39:29.278Z,101419.38
2019-03-18T10:41:57.248Z,101419.75
2019-03-18T10:44:25.217Z,101413.16
2019-03-18T10:46:53.189Z,101414.48
2019-03-18T10:49:21.260Z,101415.27
2019-03-18T10:51:49.225Z,101411.80
2019-03-18T10:54:29.979Z,101420.86
2019-03-18T10:56:48.035Z,101417.61
2019-03-18T10:59:16.203Z,101413.48
2019-03-18T11:01:44.475Z,101408.98
2019-03-18T11:04:12.244Z,101409.70
2019-03-18T11:06:40.218Z,101411.18
2019-03-18T11:09:08.282Z,101412.27
2019-03-18T11:11:36.255Z,101412.19
2019-03-18T11:14:04.319Z,101408.41
2019-03-18T11:16:32.290Z,101409.48
2019-03-18T11:19:00.263Z,101413.95
2019-03-18T11:21:28.231Z,101407.03
2019-03-18T11:23:56.192Z,101405.02
2019-03-18T11:26:24.983Z,101409.61
2019-03-18T11:28:52.748Z,101405.30
2019-03-18T11:31:20.716Z,101398.38
2019-03-18T11:33:48.788Z,101400.02
2019-03-18T11:36:16.857Z,101396.52
2019-03-18T11:38:44.744Z,101399.94
2019-03-18T11:41:12.694Z,101397.92
2019-03-18T11:43:40.663Z,101400.41
2019-03-18T11:46:10.365Z,101394.50
2019-03-18T11:48:38.953Z,101386.84
2019-03-18T11:51:07.023Z,101386.77
2019-03-18T11:53:35.300Z,101387.48
2019-03-18T11:56:03.679Z,101388.83
2019-03-18T11:58:31.575Z,101396.22
2019-03-18T12:01:00.127Z,101385.27
2019-03-18T12:03:28.200Z,101386.03
2019-03-18T12:05:56.265Z,101388.05
2019-03-18T12:08:24.132Z,101380.86
2019-03-18T12:10:52.005Z,101379.56
2019-03-18T12:13:20.993Z,101373.84
2019-03-18T12:15:48.958Z,101378.55
2019-03-18T12:18:17.031Z,101377.85
2019-03-18T12:20:44.995Z,101376.09
2019-03-18T12:23:13.171Z,101380.63
2019-03-18T12:25:41.142Z,101383.64
2019-03-18T12:28:09.213Z,101393.08
2019-03-18T12:30:37.998Z,101386.66
2019-03-18T12:33:06.055Z,101389.09
2019-03-18T12:35:34.144Z,101386.73
2019-03-18T12:38:02.222Z,101380.63
2019-03-18T12:40:29.978Z,101381.34
2019-03-18T12:42:58.664Z,101382.47
2019-03-18T12:45:26.632Z,101374.77
2019-03-18T12:47:55.420Z,101378.81
2019-03-18T12:50:55.063Z,101379.30
2019-03-18T12:52:55.496Z,101376.78
2019-03-18T12:55:24.353Z,101374.37
2019-03-18T12:57:52.309Z,101379.08
2019-03-18T13:00:29.397Z,101379.03
2019-03-18T13:02:57.384Z,101371.83
2019-03-18T13:05:26.871Z,101376.91
2019-03-18T13:07:54.833Z,101367.42
2019-03-18T13:10:23.524Z,101373.70
2019-03-18T13:12:51.484Z,101376.15
2019-03-18T13:15:19.676Z,101365.80
2019-03-18T13:17:47.529Z,101367.62
2019-03-18T13:20:20.616Z,101362.09
2019-03-18T13:22:48.072Z,101363.25
2019-03-18T13:25:16.144Z,101354.98
2019-03-18T13:27:44.212Z,101355.26
2019-03-18T13:30:16.175Z,101358.48
2019-03-18T13:32:44.260Z,101347.29
2019-03-18T13:35:12.726Z,101353.44
2019-03-18T13:37:42.029Z,101351.02
2019-03-18T13:40:14.603Z,101351.97
2019-03-18T13:42:42.104Z,101348.25
2019-03-18T13:45:20.069Z,101348.42
2019-03-18T13:47:47.931Z,101345.19
2019-03-18T13:50:19.695Z,101348.25
2019-03-18T13:52:47.500Z,101344.12
2019-03-18T13:55:15.806Z,101347.12
2019-03-18T13:57:43.698Z,101345.61
2019-03-18T14:00:19.343Z,101340.10
2019-03-18T14:02:47.621Z,101343.52
2019-03-18T14:05:16.612Z,101347.50
2019-03-18T14:07:44.582Z,101341.67
2019-03-18T14:10:15.316Z,101342.33
2019-03-18T14:12:43.397Z,101344.66
2019-03-18T14:15:13.363Z,101351.02
2019-03-18T14:17:40.859Z,101340.56
2019-03-18T14:20:11.383Z,101334.76
2019-03-18T14:22:39.046Z,101341.00
2019-03-18T14:25:08.450Z,101341.40
2019-03-18T14:27:36.422Z,101337.99
2019-03-18T14:30:10.953Z,101337.99
2019-03-18T14:32:38.917Z,101343.59
2019-03-18T14:35:07.802Z,101337.55
2019-03-18T14:37:35.569Z,101341.16
2019-03-18T14:40:10.497Z,101342.16
2019-03-18T14:42:38.586Z,101341.52
2019-03-18T14:45:19.236Z,101339.56
2019-03-18T14:47:47.331Z,101337.61
2019-03-18T14:50:16.192Z,101345.98
2019-03-18T14:52:44.064Z,101343.61
2019-03-18T14:55:14.748Z,101339.91
2019-03-18T14:57:42.262Z,101344.88
2019-03-18T15:00:17.040Z,101355.98
2019-03-18T15:02:45.350Z,101354.06
2019-03-18T15:05:14.251Z,101354.16
2019-03-18T15:07:41.907Z,101361.41
2019-03-18T15:10:11.819Z,101358.98
2019-03-18T15:12:40.314Z,101363.91
2019-03-18T15:15:12.059Z,101371.00
2019-03-18T15:17:40.028Z,101369.72
2019-03-18T15:20:12.372Z,101380.09
2019-03-18T15:22:39.959Z,101378.91
2019-03-18T15:25:13.724Z,101381.12
2019-03-18T15:27:41.623Z,101380.30
2019-03-18T15:30:12.364Z,101382.74
2019-03-18T15:32:39.941Z,101383.13
2019-03-18T15:35:09.425Z,101380.22
2019-03-18T15:37:37.596Z,101385.16
2019-03-18T15:40:11.913Z,101386.08
2019-03-18T15:42:39.685Z,101396.33
2019-03-18T15:45:10.306Z,101393.05
2019-03-18T15:47:38.284Z,101395.30
2019-03-18T15:50:13.038Z,101394.10
2019-03-18T15:52:41.385Z,101392.47
2019-03-18T15:55:09.562Z,101396.87
2019-03-18T15:57:37.216Z,101392.87
2019-03-18T16:00:11.128Z,101390.40
2019-03-18T16:02:39.097Z,101398.93
2019-03-18T16:05:07.270Z,101401.14
2019-03-18T16:07:35.232Z,101399.11
2019-03-18T16:10:06.288Z,101406.20
2019-03-18T16:12:33.936Z,101415.25
2019-03-18T16:15:01.906Z,101415.25
2019-03-18T16:17:30.077Z,101416.59
2019-03-18T16:19:58.057Z,101416.60
2019-03-18T16:22:26.015Z,101423.14
2019-03-18T16:24:54.009Z,101424.16
2019-03-18T16:27:22.066Z,101426.44
2019-03-18T16:29:50.022Z,101420.28
2019-03-18T16:32:17.991Z,101426.05
2019-03-18T16:34:45.963Z,101427.81
2019-03-18T16:37:14.140Z,101436.54
2019-03-18T16:39:42.311Z,101434.38
2019-03-18T16:42:09.970Z,101441.47
2019-03-18T16:44:38.149Z,101438.95
2019-03-18T16:47:06.217Z,101448.24
2019-03-18T16:49:34.078Z,101446.52
2019-03-18T16:52:02.046Z,101446.96
2019-03-18T16:54:30.731Z,101451.01
2019-03-18T16:56:58.597Z,101458.03
2019-03-18T16:59:26.565Z,101456.77
2019-03-18T17:01:54.944Z,101457.69
2019-03-18T17:04:23.028Z,101459.10
2019-03-18T17:06:51.191Z,101461.73
2019-03-18T17:09:19.259Z,101460.42
2019-03-18T17:11:47.230Z,101465.78
2019-03-18T17:14:15.103Z,101460.89
2019-03-18T17:16:43.180Z,101461.00
2019-03-18T17:19:11.255Z,101471.65
2019-03-18T17:21:39.211Z,101469.02
2019-03-18T17:24:07.280Z,101472.52
2019-03-18T17:26:35.247Z,101477.00
2019-03-18T17:29:03.932Z,101477.86
2019-03-18T17:31:33.642Z,101478.73
2019-03-18T17:34:01.712Z,101482.30
2019-03-18T17:36:30.600Z,101483.66
2019-03-18T17:38:58.576Z,101483.28
2019-03-18T17:41:26.538Z,101485.97
2019-03-18T17:43:54.413Z,101486.38
2019-03-18T17:46:22.374Z,101483.73
2019-03-18T17:48:50.344Z,101487.34
2019-03-18T17:51:18.308Z,101489.53
2019-03-18T17:53:46.895Z,101490.44
2019-03-18T17:56:15.079Z,101490.48
2019-03-18T17:58:43.033Z,101495.81
2019-03-18T18:01:11.920Z,101495.77
2019-03-18T18:03:39.696Z,101498.91
2019-03-18T18:06:07.756Z,101509.89
2019-03-18T18:08:35.837Z,101506.38
2019-03-18T18:11:04.314Z,101506.42
2019-03-18T18:13:32.286Z,101505.52
2019-03-18T18:16:00.449Z,101509.94
2019-03-18T18:18:28.735Z,101509.52
2019-03-18T18:20:56.700Z,101513.94
2019-03-18T18:23:24.982Z,101522.27
2019-03-18T18:25:53.965Z,101532.02
2019-03-18T18:28:22.141Z,101532.02
2019-03-18T18:30:50.108Z,101534.66
2019-03-18T18:33:18.487Z,101537.30
2019-03-18T18:35:46.762Z,101541.23
2019-03-18T18:38:15.139Z,101546.52
2019-03-18T18:40:43.108Z,101545.16
2019-03-18T18:43:11.106Z,101548.70
2019-03-18T18:45:39.251Z,101550.06
2019-03-18T18:48:07.329Z,101553.54
2019-03-18T18:50:35.394Z,101552.70
2019-03-18T18:53:03.977Z,101544.80
2019-03-18T18:55:31.737Z,101550.56
2019-03-18T18:58:01.558Z,101552.36
2019-03-18T19:00:29.211Z,101547.13
2019-03-18T19:02:57.702Z,101548.44
2019-03-18T19:05:29.552Z,101547.15
2019-03-18T19:07:57.864Z,101557.28
2019-03-18T19:10:26.109Z,101560.80
2019-03-18T19:12:54.171Z,101557.76
2019-03-18T19:15:30.642Z,101563.91
2019-03-18T19:17:58.409Z,101562.17
2019-03-18T19:20:26.482Z,101564.84
2019-03-18T19:22:54.545Z,101563.97
2019-03-18T19:25:22.520Z,101568.34
2019-03-18T19:27:50.493Z,101563.52
2019-03-18T19:30:19.686Z,101569.69
2019-03-18T19:32:47.388Z,101564.86
2019-03-18T19:35:16.029Z,101562.63
2019-03-18T19:37:44.696Z,101563.94
2019-03-18T19:40:19.963Z,101569.23
2019-03-18T19:42:47.916Z,101567.47
2019-03-18T19:45:16.091Z,101567.47
2019-03-18T19:47:44.374Z,101567.02
2019-03-18T19:50:18.902Z,101561.28
2019-03-18T19:52:46.652Z,101558.20
2019-03-18T19:55:15.042Z,101560.42
2019-03-18T19:57:43.005Z,101564.33
2019-03-18T20:00:18.001Z,101567.83
2019-03-18T20:02:46.419Z,101565.65
2019-03-18T20:05:15.277Z,101562.98
2019-03-18T20:07:44.001Z,101561.20
2019-03-18T20:10:14.313Z,101570.42
2019-03-18T20:12:41.867Z,101572.17
2019-03-18T20:15:14.054Z,101568.21
2019-03-18T20:17:41.544Z,101571.71
2019-03-18T20:20:13.965Z,101579.10
2019-03-18T20:22:41.944Z,101576.03
2019-03-18T20:25:11.143Z,101581.75
2019-03-18T20:27:38.796Z,101579.59
2019-03-18T20:30:20.693Z,101583.03
2019-03-18T20:32:48.657Z,101579.50
2019-03-18T20:35:20.927Z,101574.67
2019-03-18T20:37:51.368Z,101582.55
2019-03-18T20:40:18.712Z,101582.13
2019-03-18T20:42:46.573Z,101577.25
2019-03-18T20:45:17.003Z,101574.13
2019-03-18T20:47:44.558Z,101572.41
2019-03-18T20:50:17.234Z,101574.16
2019-03-18T20:52:44.797Z,101573.28
2019-03-18T20:55:14.605Z,101575.02
2019-03-18T20:57:42.579Z,101579.41
2019-03-18T21:00:16.587Z,101581.11
2019-03-18T21:02:44.863Z,101583.74
2019-03-18T21:05:12.625Z,101578.87
2019-03-18T21:07:40.604Z,101584.10
2019-03-18T21:10:10.718Z,101578.38
2019-03-18T21:12:38.170Z,101578.34
2019-03-18T21:15:08.288Z,101581.86
2019-03-18T21:17:36.158Z,101587.13
2019-03-18T21:20:10.474Z,101593.70
2019-03-18T21:22:38.337Z,101591.48
2019-03-18T21:25:07.232Z,101601.11
2019-03-18T21:27:35.304Z,101601.05
2019-03-18T21:30:11.769Z,101604.13
2019-03-18T21:32:39.839Z,101609.78
2019-03-18T21:35:08.728Z,101607.14
2019-03-18T21:37:36.392Z,101609.70
2019-03-18T21:40:07.948Z,101606.17
2019-03-18T21:42:35.702Z,101606.59
2019-03-18T21:45:06.747Z,101609.65
2019-03-18T21:47:34.720Z,101608.36
2019-03-18T21:50:05.144Z,101610.55
2019-03-18T21:52:32.802Z,101615.28
2019-03-18T21:55:01.181Z,101607.82
2019-03-18T21:57:29.146Z,101612.20
2019-03-18T21:59:57.613Z,101618.70
2019-03-18T22:02:26.115Z,101618.70
2019-03-18T22:04:54.180Z,101619.97
2019-03-18T22:07:22.255Z,101623.86
2019-03-18T22:09:50.223Z,101617.58
2019-03-18T22:12:18.191Z,101619.31
2019-03-18T22:14:46.365Z,101621.98
2019-03-18T22:17:14.335Z,101615.28
2019-03-18T22:19:43.022Z,101620.59
2019-03-18T22:22:10.986Z,101620.52
2019-03-18T22:24:45.383Z,101615.31
2019-03-18T22:27:08.764Z,101612.48
2019-03-18T22:29:36.631Z,101612.11
2019-03-18T22:32:04.605Z,101613.84
2019-03-18T22:34:32.466Z,101620.34
2019-03-18T22:37:00.539Z,101621.68
2019-03-18T22:39:28.607Z,101624.73
2019-03-18T22:41:56.577Z,101624.70
2019-03-18T22:44:24.644Z,101624.74
2019-03-18T22:46:52.819Z,101622.58
2019-03-18T22:49:20.894Z,101624.22
2019-03-18T22:51:48.961Z,101628.55
2019-03-18T22:54:17.448Z,101622.27
2019-03-18T22:56:45.310Z,101625.84
2019-03-18T22:59:13.277Z,101626.28
2019-03-18T23:01:42.065Z,101612.64
2019-03-18T23:04:10.141Z,101616.45
2019-03-18T23:06:38.104Z,101616.94
2019-03-18T23:09:06.075Z,101622.22
2019-03-18T23:11:34.040Z,101620.80
2019-03-18T23:14:02.016Z,101620.80
2019-03-18T23:16:29.980Z,101621.22
2019-03-18T23:18:57.847Z,101623.35
2019-03-18T23:21:25.603Z,101617.23
2019-03-18T23:23:53.478Z,101622.78
2019-03-18T23:26:21.444Z,101623.73
2019-03-18T23:28:49.310Z,101620.56
2019-03-18T23:31:17.178Z,101618.02
2019-03-18T23:33:45.143Z,101615.39
2019-03-18T23:36:13.216Z,101617.13
2019-03-18T23:38:41.182Z,101621.88
2019-03-18T23:41:09.052Z,101619.20
2019-03-18T23:43:36.815Z,101620.43
2019-03-18T23:46:04.579Z,101626.14
2019-03-18T23:48:33.365Z,101622.12
2019-03-18T23:51:01.437Z,101627.63
2019-03-18T23:53:30.118Z,101615.88
2019-03-18T23:55:58.190Z,101615.18
2019-03-18T23:58:26.064Z,101613.29
